sensor_id;sensor_type;location;lat;lon;timestamp;temperature;humidity
21001;DHT22;10658;50.920;12.238;2023-04-25T00:00:58;6.80;99.90
21001;DHT22;10658;50.920;12.238;2023-04-25T00:04:59;6.70;99.90
21001;DHT22;10658;50.920;12.238;2023-04-25T00:09:00;6.60;99.90
21001;DHT22;10658;50.920;12.238;2023-04-25T00:13:00;6.50;99.90
21001;DHT22;10658;50.920;12.238;2023-04-25T00:17:02;6.50;99.90
21001;DHT22;10658;50.920;12.238;2023-04-25T00:21:04;6.40;99.90
21001;DHT22;10658;50.920;12.238;2023-04-25T00:25:07;6.20;99.90
21001;DHT22;10658;50.920;12.238;2023-04-25T00:29:07;6.10;99.90
21001;DHT22;10658;50.920;12.238;2023-04-25T00:33:08;6.10;99.90
21001;DHT22;10658;50.920;12.238;2023-04-25T00:37:09;6.00;99.90
21001;DHT22;10658;50.920;12.238;2023-04-25T00:41:11;6.00;99.90
21001;DHT22;10658;50.920;12.238;2023-04-25T00:45:13;6.00;99.90
21001;DHT22;10658;50.920;12.238;2023-04-25T00:49:17;5.90;99.90
21001;DHT22;10658;50.920;12.238;2023-04-25T00:53:19;5.90;99.90
21001;DHT22;10658;50.920;12.238;2023-04-25T00:57:20;6.00;99.90
21001;DHT22;10658;50.920;12.238;2023-04-25T01:01:21;6.00;99.90
21001;DHT22;10658;50.920;12.238;2023-04-25T01:05:22;6.10;99.90
21001;DHT22;10658;50.920;12.238;2023-04-25T01:09:23;6.20;99.90
21001;DHT22;10658;50.920;12.238;2023-04-25T01:13:25;6.30;99.90
21001;DHT22;10658;50.920;12.238;2023-04-25T01:17:27;6.40;99.90
21001;DHT22;10658;50.920;12.238;2023-04-25T01:21:28;6.40;99.90
21001;DHT22;10658;50.920;12.238;2023-04-25T01:25:30;6.50;99.90
21001;DHT22;10658;50.920;12.238;2023-04-25T01:29:32;6.50;99.90
21001;DHT22;10658;50.920;12.238;2023-04-25T01:33:33;6.50;99.90
21001;DHT22;10658;50.920;12.238;2023-04-25T01:37:44;6.50;99.90
21001;DHT22;10658;50.920;12.238;2023-04-25T01:41:47;6.50;99.90
21001;DHT22;10658;50.920;12.238;2023-04-25T01:45:49;6.40;99.90
21001;DHT22;10658;50.920;12.238;2023-04-25T01:49:50;6.40;99.90
21001;DHT22;10658;50.920;12.238;2023-04-25T01:53:52;6.30;99.90
21001;DHT22;10658;50.920;12.238;2023-04-25T01:57:53;6.20;99.90
21001;DHT22;10658;50.920;12.238;2023-04-25T02:01:59;6.20;99.90
21001;DHT22;10658;50.920;12.238;2023-04-25T02:06:05;6.10;99.90
21001;DHT22;10658;50.920;12.238;2023-04-25T02:10:09;6.20;99.90
21001;DHT22;10658;50.920;12.238;2023-04-25T02:14:16;6.10;99.90
21001;DHT22;10658;50.920;12.238;2023-04-25T02:18:23;6.10;99.90
21001;DHT22;10658;50.920;12.238;2023-04-25T02:22:24;6.10;99.90
21001;DHT22;10658;50.920;12.238;2023-04-25T02:26:25;6.10;99.90
21001;DHT22;10658;50.920;12.238;2023-04-25T02:30:26;6.00;99.90
21001;DHT22;10658;50.920;12.238;2023-04-25T02:34:27;6.00;99.90
21001;DHT22;10658;50.920;12.238;2023-04-25T02:38:28;5.90;99.90
21001;DHT22;10658;50.920;12.238;2023-04-25T02:42:31;5.70;99.90
21001;DHT22;10658;50.920;12.238;2023-04-25T02:46:31;5.50;99.90
21001;DHT22;10658;50.920;12.238;2023-04-25T02:50:34;5.60;99.90
21001;DHT22;10658;50.920;12.238;2023-04-25T02:54:35;5.50;99.90
21001;DHT22;10658;50.920;12.238;2023-04-25T02:58:37;5.50;99.90
21001;DHT22;10658;50.920;12.238;2023-04-25T03:02:37;5.50;99.90
21001;DHT22;10658;50.920;12.238;2023-04-25T03:06:38;5.40;99.90
21001;DHT22;10658;50.920;12.238;2023-04-25T03:10:39;5.40;99.90
21001;DHT22;10658;50.920;12.238;2023-04-25T03:14:43;5.40;99.90
21001;DHT22;10658;50.920;12.238;2023-04-25T03:18:44;5.50;99.90
21001;DHT22;10658;50.920;12.238;2023-04-25T03:22:44;5.50;99.90
21001;DHT22;10658;50.920;12.238;2023-04-25T03:26:46;5.50;99.90
21001;DHT22;10658;50.920;12.238;2023-04-25T03:30:46;5.40;99.90
21001;DHT22;10658;50.920;12.238;2023-04-25T03:34:47;5.40;99.90
21001;DHT22;10658;50.920;12.238;2023-04-25T03:38:48;5.30;99.90
21001;DHT22;10658;50.920;12.238;2023-04-25T03:42:50;5.30;99.90
21001;DHT22;10658;50.920;12.238;2023-04-25T03:46:52;5.20;99.90
21001;DHT22;10658;50.920;12.238;2023-04-25T03:50:54;5.10;99.90
21001;DHT22;10658;50.920;12.238;2023-04-25T03:54:55;5.10;99.90
21001;DHT22;10658;50.920;12.238;2023-04-25T03:58:58;5.20;99.90
21001;DHT22;10658;50.920;12.238;2023-04-25T04:03:01;5.30;99.90
21001;DHT22;10658;50.920;12.238;2023-04-25T04:07:02;5.30;99.90
21001;DHT22;10658;50.920;12.238;2023-04-25T04:11:07;5.20;99.90
21001;DHT22;10658;50.920;12.238;2023-04-25T04:15:09;5.30;99.90
21001;DHT22;10658;50.920;12.238;2023-04-25T04:19:10;5.30;99.90
21001;DHT22;10658;50.920;12.238;2023-04-25T04:23:13;5.10;99.90
21001;DHT22;10658;50.920;12.238;2023-04-25T04:27:15;5.00;99.90
21001;DHT22;10658;50.920;12.238;2023-04-25T04:31:38;5.10;99.90
21001;DHT22;10658;50.920;12.238;2023-04-25T04:35:39;5.30;99.90
21001;DHT22;10658;50.920;12.238;2023-04-25T04:39:41;5.50;99.90
21001;DHT22;10658;50.920;12.238;2023-04-25T04:44:00;5.80;99.90
21001;DHT22;10658;50.920;12.238;2023-04-25T04:48:13;6.00;99.90
21001;DHT22;10658;50.920;12.238;2023-04-25T04:52:36;6.10;99.90
21001;DHT22;10658;50.920;12.238;2023-04-25T04:56:57;6.10;99.90
21001;DHT22;10658;50.920;12.238;2023-04-25T05:01:28;6.00;99.90
21001;DHT22;10658;50.920;12.238;2023-04-25T05:05:41;6.00;99.90
21001;DHT22;10658;50.920;12.238;2023-04-25T05:09:59;6.10;99.90
21001;DHT22;10658;50.920;12.238;2023-04-25T05:14:39;6.10;99.90
21001;DHT22;10658;50.920;12.238;2023-04-25T05:18:58;6.20;99.90
21001;DHT22;10658;50.920;12.238;2023-04-25T05:23:18;6.20;99.90
21001;DHT22;10658;50.920;12.238;2023-04-25T05:27:24;6.20;99.90
21001;DHT22;10658;50.920;12.238;2023-04-25T05:31:40;6.30;99.90
21001;DHT22;10658;50.920;12.238;2023-04-25T05:35:49;6.40;99.90
21001;DHT22;10658;50.920;12.238;2023-04-25T05:39:50;6.50;99.90
21001;DHT22;10658;50.920;12.238;2023-04-25T05:44:20;6.60;99.90
21001;DHT22;10658;50.920;12.238;2023-04-25T05:48:41;6.70;99.90
21001;DHT22;10658;50.920;12.238;2023-04-25T05:53:11;6.80;99.90
21001;DHT22;10658;50.920;12.238;2023-04-25T05:57:22;6.90;99.90
21001;DHT22;10658;50.920;12.238;2023-04-25T06:01:23;7.10;99.90
21001;DHT22;10658;50.920;12.238;2023-04-25T06:05:25;7.20;99.90
21001;DHT22;10658;50.920;12.238;2023-04-25T06:09:26;7.40;99.90
21001;DHT22;10658;50.920;12.238;2023-04-25T06:13:28;7.50;99.90
21001;DHT22;10658;50.920;12.238;2023-04-25T06:17:30;7.40;99.90
21001;DHT22;10658;50.920;12.238;2023-04-25T06:21:31;7.30;99.90
21001;DHT22;10658;50.920;12.238;2023-04-25T06:25:33;7.20;99.90
21001;DHT22;10658;50.920;12.238;2023-04-25T06:29:34;7.10;99.90
21001;DHT22;10658;50.920;12.238;2023-04-25T06:33:35;7.20;99.90
21001;DHT22;10658;50.920;12.238;2023-04-25T06:37:37;7.30;99.90
21001;DHT22;10658;50.920;12.238;2023-04-25T06:41:38;7.50;99.90
21001;DHT22;10658;50.920;12.238;2023-04-25T06:45:41;7.90;99.90
21001;DHT22;10658;50.920;12.238;2023-04-25T06:49:44;8.40;99.90
21001;DHT22;10658;50.920;12.238;2023-04-25T06:53:45;8.50;99.90
21001;DHT22;10658;50.920;12.238;2023-04-25T06:57:56;8.70;99.90
21001;DHT22;10658;50.920;12.238;2023-04-25T07:02:20;9.10;99.90
21001;DHT22;10658;50.920;12.238;2023-04-25T07:06:26;9.40;99.90
21001;DHT22;10658;50.920;12.238;2023-04-25T07:10:29;9.20;99.90
21001;DHT22;10658;50.920;12.238;2023-04-25T07:14:31;9.20;99.90
21001;DHT22;10658;50.920;12.238;2023-04-25T07:18:32;9.10;99.90
21001;DHT22;10658;50.920;12.238;2023-04-25T07:22:34;9.10;99.90
21001;DHT22;10658;50.920;12.238;2023-04-25T07:26:37;9.40;99.90
21001;DHT22;10658;50.920;12.238;2023-04-25T07:30:58;9.40;99.90
21001;DHT22;10658;50.920;12.238;2023-04-25T07:34:59;9.00;99.90
21001;DHT22;10658;50.920;12.238;2023-04-25T07:39:00;8.70;99.90
21001;DHT22;10658;50.920;12.238;2023-04-25T07:43:02;8.60;99.90
21001;DHT22;10658;50.920;12.238;2023-04-25T07:47:12;8.60;99.90
21001;DHT22;10658;50.920;12.238;2023-04-25T07:51:15;8.50;99.90
21001;DHT22;10658;50.920;12.238;2023-04-25T07:55:16;8.40;99.90
21001;DHT22;10658;50.920;12.238;2023-04-25T07:59:35;8.60;99.90
21001;DHT22;10658;50.920;12.238;2023-04-25T08:03:37;8.70;99.90
21001;DHT22;10658;50.920;12.238;2023-04-25T08:07:43;8.70;99.90
21001;DHT22;10658;50.920;12.238;2023-04-25T08:11:46;8.90;99.90
21001;DHT22;10658;50.920;12.238;2023-04-25T08:15:50;9.00;99.90
21001;DHT22;10658;50.920;12.238;2023-04-25T08:19:51;8.80;99.90
21001;DHT22;10658;50.920;12.238;2023-04-25T08:24:02;8.80;99.90
21001;DHT22;10658;50.920;12.238;2023-04-25T08:28:07;8.70;99.90
21001;DHT22;10658;50.920;12.238;2023-04-25T08:32:08;8.50;99.90
21001;DHT22;10658;50.920;12.238;2023-04-25T08:36:14;8.30;99.90
21001;DHT22;10658;50.920;12.238;2023-04-25T08:40:16;8.40;99.90
21001;DHT22;10658;50.920;12.238;2023-04-25T08:44:27;8.40;99.90
21001;DHT22;10658;50.920;12.238;2023-04-25T08:48:28;8.50;99.90
21001;DHT22;10658;50.920;12.238;2023-04-25T08:52:44;8.70;99.90
21001;DHT22;10658;50.920;12.238;2023-04-25T08:56:48;8.80;99.90
21001;DHT22;10658;50.920;12.238;2023-04-25T09:00:50;8.80;99.90
21001;DHT22;10658;50.920;12.238;2023-04-25T09:04:55;8.80;99.90
21001;DHT22;10658;50.920;12.238;2023-04-25T09:09:07;8.80;99.90
21001;DHT22;10658;50.920;12.238;2023-04-25T09:13:11;8.80;99.90
21001;DHT22;10658;50.920;12.238;2023-04-25T09:17:41;8.60;99.90
21001;DHT22;10658;50.920;12.238;2023-04-25T09:21:55;8.60;99.90
21001;DHT22;10658;50.920;12.238;2023-04-25T09:25:57;8.70;99.90
21001;DHT22;10658;50.920;12.238;2023-04-25T09:29:59;8.50;99.90
21001;DHT22;10658;50.920;12.238;2023-04-25T09:34:14;8.50;99.90
21001;DHT22;10658;50.920;12.238;2023-04-25T09:38:21;8.30;99.90
21001;DHT22;10658;50.920;12.238;2023-04-25T09:42:57;8.30;99.90
21001;DHT22;10658;50.920;12.238;2023-04-25T09:47:00;8.30;99.90
21001;DHT22;10658;50.920;12.238;2023-04-25T09:51:13;8.30;99.90
21001;DHT22;10658;50.920;12.238;2023-04-25T09:55:16;8.40;99.90
21001;DHT22;10658;50.920;12.238;2023-04-25T09:59:22;8.50;99.90
21001;DHT22;10658;50.920;12.238;2023-04-25T10:03:24;8.50;99.90
21001;DHT22;10658;50.920;12.238;2023-04-25T10:07:49;8.40;99.90
21001;DHT22;10658;50.920;12.238;2023-04-25T10:11:51;8.40;99.90
21001;DHT22;10658;50.920;12.238;2023-04-25T10:15:53;8.50;99.90
21001;DHT22;10658;50.920;12.238;2023-04-25T10:19:54;8.40;99.90
21001;DHT22;10658;50.920;12.238;2023-04-25T10:23:56;8.40;99.90
21001;DHT22;10658;50.920;12.238;2023-04-25T10:27:59;8.40;99.90
21001;DHT22;10658;50.920;12.238;2023-04-25T10:32:02;8.60;99.90
21001;DHT22;10658;50.920;12.238;2023-04-25T10:36:18;8.90;99.90
21001;DHT22;10658;50.920;12.238;2023-04-25T10:40:22;9.10;99.90
21001;DHT22;10658;50.920;12.238;2023-04-25T10:44:30;8.80;99.90
21001;DHT22;10658;50.920;12.238;2023-04-25T10:48:31;8.60;99.90
21001;DHT22;10658;50.920;12.238;2023-04-25T10:52:33;8.40;99.90
21001;DHT22;10658;50.920;12.238;2023-04-25T10:56:38;8.40;99.90
21001;DHT22;10658;50.920;12.238;2023-04-25T11:00:44;8.30;99.90
21001;DHT22;10658;50.920;12.238;2023-04-25T11:04:45;8.30;99.90
21001;DHT22;10658;50.920;12.238;2023-04-25T11:08:51;8.00;99.90
21001;DHT22;10658;50.920;12.238;2023-04-25T11:12:52;8.00;99.90
21001;DHT22;10658;50.920;12.238;2023-04-25T11:16:56;7.90;99.90
21001;DHT22;10658;50.920;12.238;2023-04-25T11:20:57;8.00;99.90
21001;DHT22;10658;50.920;12.238;2023-04-25T11:25:00;8.10;99.90
21001;DHT22;10658;50.920;12.238;2023-04-25T11:29:04;8.10;99.90
21001;DHT22;10658;50.920;12.238;2023-04-25T11:33:05;8.00;99.90
21001;DHT22;10658;50.920;12.238;2023-04-25T11:37:06;7.90;99.90
21001;DHT22;10658;50.920;12.238;2023-04-25T11:41:07;7.80;99.90
21001;DHT22;10658;50.920;12.238;2023-04-25T11:45:08;7.80;99.90
21001;DHT22;10658;50.920;12.238;2023-04-25T11:49:10;7.80;99.90
21001;DHT22;10658;50.920;12.238;2023-04-25T11:53:11;7.80;99.90
21001;DHT22;10658;50.920;12.238;2023-04-25T11:57:12;7.90;99.90
21001;DHT22;10658;50.920;12.238;2023-04-25T12:05:31;8.20;99.90
21001;DHT22;10658;50.920;12.238;2023-04-25T12:09:35;8.40;99.90
21001;DHT22;10658;50.920;12.238;2023-04-25T12:13:36;8.70;99.90
21001;DHT22;10658;50.920;12.238;2023-04-25T12:17:40;9.10;99.90
21001;DHT22;10658;50.920;12.238;2023-04-25T12:21:41;9.50;99.90
21001;DHT22;10658;50.920;12.238;2023-04-25T12:25:43;9.90;99.90
21001;DHT22;10658;50.920;12.238;2023-04-25T12:29:55;9.90;99.90
21001;DHT22;10658;50.920;12.238;2023-04-25T12:33:56;9.60;99.90
21001;DHT22;10658;50.920;12.238;2023-04-25T12:37:57;9.40;99.90
21001;DHT22;10658;50.920;12.238;2023-04-25T12:41:58;9.30;99.90
21001;DHT22;10658;50.920;12.238;2023-04-25T12:46:00;9.40;99.90
21001;DHT22;10658;50.920;12.238;2023-04-25T12:50:01;9.20;99.90
21001;DHT22;10658;50.920;12.238;2023-04-25T12:54:03;9.20;99.90
21001;DHT22;10658;50.920;12.238;2023-04-25T12:58:04;9.40;99.90
21001;DHT22;10658;50.920;12.238;2023-04-25T13:02:05;9.50;99.90
21001;DHT22;10658;50.920;12.238;2023-04-25T13:06:06;9.60;99.90
21001;DHT22;10658;50.920;12.238;2023-04-25T13:10:08;9.70;99.90
21001;DHT22;10658;50.920;12.238;2023-04-25T13:14:08;9.90;99.90
21001;DHT22;10658;50.920;12.238;2023-04-25T13:18:09;10.10;99.90
21001;DHT22;10658;50.920;12.238;2023-04-25T13:22:10;10.30;99.90
21001;DHT22;10658;50.920;12.238;2023-04-25T13:26:11;10.30;99.90
21001;DHT22;10658;50.920;12.238;2023-04-25T13:30:14;10.20;99.90
21001;DHT22;10658;50.920;12.238;2023-04-25T13:34:15;10.20;99.90
21001;DHT22;10658;50.920;12.238;2023-04-25T13:38:16;10.10;99.90
21001;DHT22;10658;50.920;12.238;2023-04-25T13:42:17;9.30;99.90
21001;DHT22;10658;50.920;12.238;2023-04-25T13:46:18;8.80;99.90
21001;DHT22;10658;50.920;12.238;2023-04-25T13:50:21;8.50;99.90
21001;DHT22;10658;50.920;12.238;2023-04-25T13:54:22;8.40;99.90
21001;DHT22;10658;50.920;12.238;2023-04-25T13:58:23;8.40;99.90
21001;DHT22;10658;50.920;12.238;2023-04-25T14:02:24;8.50;99.90
21001;DHT22;10658;50.920;12.238;2023-04-25T14:06:27;8.50;99.90
21001;DHT22;10658;50.920;12.238;2023-04-25T14:10:28;8.70;99.90
21001;DHT22;10658;50.920;12.238;2023-04-25T14:14:29;8.90;99.90
21001;DHT22;10658;50.920;12.238;2023-04-25T14:18:30;9.20;99.90
21001;DHT22;10658;50.920;12.238;2023-04-25T14:22:31;9.50;99.90
21001;DHT22;10658;50.920;12.238;2023-04-25T14:26:33;9.90;99.90
21001;DHT22;10658;50.920;12.238;2023-04-25T14:30:34;10.10;99.90
21001;DHT22;10658;50.920;12.238;2023-04-25T14:34:35;10.10;99.90
21001;DHT22;10658;50.920;12.238;2023-04-25T14:38:36;9.90;99.90
21001;DHT22;10658;50.920;12.238;2023-04-25T14:42:42;9.70;99.90
21001;DHT22;10658;50.920;12.238;2023-04-25T14:46:46;9.50;99.90
21001;DHT22;10658;50.920;12.238;2023-04-25T14:50:50;9.30;99.90
21001;DHT22;10658;50.920;12.238;2023-04-25T14:54:58;9.30;99.90
21001;DHT22;10658;50.920;12.238;2023-04-25T14:59:03;9.40;99.90
21001;DHT22;10658;50.920;12.238;2023-04-25T15:03:10;9.50;99.90
21001;DHT22;10658;50.920;12.238;2023-04-25T15:07:16;9.60;99.90
21001;DHT22;10658;50.920;12.238;2023-04-25T15:11:21;9.60;99.90
21001;DHT22;10658;50.920;12.238;2023-04-25T15:15:25;9.70;99.90
21001;DHT22;10658;50.920;12.238;2023-04-25T15:19:33;9.60;99.90
21001;DHT22;10658;50.920;12.238;2023-04-25T15:23:39;9.60;99.90
21001;DHT22;10658;50.920;12.238;2023-04-25T15:27:43;9.50;99.90
21001;DHT22;10658;50.920;12.238;2023-04-25T15:31:51;9.30;99.90
21001;DHT22;10658;50.920;12.238;2023-04-25T15:35:55;9.20;99.90
21001;DHT22;10658;50.920;12.238;2023-04-25T15:40:06;9.30;99.90
21001;DHT22;10658;50.920;12.238;2023-04-25T15:44:45;9.30;99.90
21001;DHT22;10658;50.920;12.238;2023-04-25T15:48:46;9.30;99.90
21001;DHT22;10658;50.920;12.238;2023-04-25T15:52:48;9.40;99.90
21001;DHT22;10658;50.920;12.238;2023-04-25T15:56:49;9.50;99.90
21001;DHT22;10658;50.920;12.238;2023-04-25T16:01:06;9.30;99.90
21001;DHT22;10658;50.920;12.238;2023-04-25T16:05:07;9.20;99.90
21001;DHT22;10658;50.920;12.238;2023-04-25T16:09:08;9.20;99.90
21001;DHT22;10658;50.920;12.238;2023-04-25T16:13:12;9.10;99.90
21001;DHT22;10658;50.920;12.238;2023-04-25T16:17:19;9.10;99.90
21001;DHT22;10658;50.920;12.238;2023-04-25T16:21:20;9.00;99.90
21001;DHT22;10658;50.920;12.238;2023-04-25T16:25:21;9.00;99.90
21001;DHT22;10658;50.920;12.238;2023-04-25T16:29:22;9.30;99.90
21001;DHT22;10658;50.920;12.238;2023-04-25T16:33:22;9.60;99.90
21001;DHT22;10658;50.920;12.238;2023-04-25T16:37:23;9.70;99.90
21001;DHT22;10658;50.920;12.238;2023-04-25T16:41:24;9.50;99.90
21001;DHT22;10658;50.920;12.238;2023-04-25T16:45:25;9.10;99.90
21001;DHT22;10658;50.920;12.238;2023-04-25T16:49:26;8.90;99.90
21001;DHT22;10658;50.920;12.238;2023-04-25T16:53:27;8.80;99.90
21001;DHT22;10658;50.920;12.238;2023-04-25T16:57:28;8.70;99.90
21001;DHT22;10658;50.920;12.238;2023-04-25T17:01:29;8.50;99.90
21001;DHT22;10658;50.920;12.238;2023-04-25T17:05:32;8.30;99.90
21001;DHT22;10658;50.920;12.238;2023-04-25T17:09:33;8.20;99.90
21001;DHT22;10658;50.920;12.238;2023-04-25T17:13:34;8.10;99.90
21001;DHT22;10658;50.920;12.238;2023-04-25T17:17:34;8.10;99.90
21001;DHT22;10658;50.920;12.238;2023-04-25T17:21:35;8.10;99.90
21001;DHT22;10658;50.920;12.238;2023-04-25T17:25:36;8.10;99.90
21001;DHT22;10658;50.920;12.238;2023-04-25T17:29:37;8.10;99.90
21001;DHT22;10658;50.920;12.238;2023-04-25T17:33:37;8.10;99.90
21001;DHT22;10658;50.920;12.238;2023-04-25T17:37:38;8.10;99.90
21001;DHT22;10658;50.920;12.238;2023-04-25T17:41:40;8.00;99.90
21001;DHT22;10658;50.920;12.238;2023-04-25T17:45:41;8.00;99.90
21001;DHT22;10658;50.920;12.238;2023-04-25T17:49:42;8.00;99.90
21001;DHT22;10658;50.920;12.238;2023-04-25T17:53:42;7.90;99.90
21001;DHT22;10658;50.920;12.238;2023-04-25T17:57:43;7.90;99.90
21001;DHT22;10658;50.920;12.238;2023-04-25T18:01:44;7.90;99.90
21001;DHT22;10658;50.920;12.238;2023-04-25T18:05:45;7.90;99.90
21001;DHT22;10658;50.920;12.238;2023-04-25T18:09:46;7.60;99.90
21001;DHT22;10658;50.920;12.238;2023-04-25T18:13:46;7.50;99.90
21001;DHT22;10658;50.920;12.238;2023-04-25T18:17:47;7.30;99.90
21001;DHT22;10658;50.920;12.238;2023-04-25T18:21:49;7.10;99.90
21001;DHT22;10658;50.920;12.238;2023-04-25T18:25:51;6.90;99.90
21001;DHT22;10658;50.920;12.238;2023-04-25T18:29:53;6.80;99.90
21001;DHT22;10658;50.920;12.238;2023-04-25T18:33:55;6.60;99.90
21001;DHT22;10658;50.920;12.238;2023-04-25T18:37:55;6.50;99.90
21001;DHT22;10658;50.920;12.238;2023-04-25T18:42:09;6.50;99.90
21001;DHT22;10658;50.920;12.238;2023-04-25T18:46:16;6.50;99.90
21001;DHT22;10658;50.920;12.238;2023-04-25T18:50:21;6.50;99.90
21001;DHT22;10658;50.920;12.238;2023-04-25T18:54:26;6.50;99.90
21001;DHT22;10658;50.920;12.238;2023-04-25T18:58:34;6.40;99.90
21001;DHT22;10658;50.920;12.238;2023-04-25T19:02:38;6.40;99.90
21001;DHT22;10658;50.920;12.238;2023-04-25T19:06:44;6.40;99.90
21001;DHT22;10658;50.920;12.238;2023-04-25T19:10:52;6.30;99.90
21001;DHT22;10658;50.920;12.238;2023-04-25T19:14:56;6.40;99.90
21001;DHT22;10658;50.920;12.238;2023-04-25T19:19:04;6.40;99.90
21001;DHT22;10658;50.920;12.238;2023-04-25T19:23:08;6.30;99.90
21001;DHT22;10658;50.920;12.238;2023-04-25T19:27:12;6.30;99.90
21001;DHT22;10658;50.920;12.238;2023-04-25T19:31:19;6.40;99.90
21001;DHT22;10658;50.920;12.238;2023-04-25T19:35:26;6.30;99.90
21001;DHT22;10658;50.920;12.238;2023-04-25T19:39:37;6.30;99.90
21001;DHT22;10658;50.920;12.238;2023-04-25T19:43:38;6.20;99.90
21001;DHT22;10658;50.920;12.238;2023-04-25T19:47:53;6.20;99.90
21001;DHT22;10658;50.920;12.238;2023-04-25T19:52:06;6.20;99.90
21001;DHT22;10658;50.920;12.238;2023-04-25T19:56:34;6.10;99.90
21001;DHT22;10658;50.920;12.238;2023-04-25T20:00:43;6.00;99.90
21001;DHT22;10658;50.920;12.238;2023-04-25T20:04:53;6.00;99.90
21001;DHT22;10658;50.920;12.238;2023-04-25T20:08:56;6.00;99.90
21001;DHT22;10658;50.920;12.238;2023-04-25T20:12:57;6.00;99.90
21001;DHT22;10658;50.920;12.238;2023-04-25T20:17:07;5.90;99.90
21001;DHT22;10658;50.920;12.238;2023-04-25T20:21:08;5.90;99.90
21001;DHT22;10658;50.920;12.238;2023-04-25T20:25:09;6.00;99.90
21001;DHT22;10658;50.920;12.238;2023-04-25T20:29:25;6.00;99.90
21001;DHT22;10658;50.920;12.238;2023-04-25T20:33:34;6.00;99.90
21001;DHT22;10658;50.920;12.238;2023-04-25T20:37:44;5.90;99.90
21001;DHT22;10658;50.920;12.238;2023-04-25T20:41:48;5.70;99.90
21001;DHT22;10658;50.920;12.238;2023-04-25T20:45:54;5.70;99.90
21001;DHT22;10658;50.920;12.238;2023-04-25T20:50:08;5.70;99.90
21001;DHT22;10658;50.920;12.238;2023-04-25T20:54:21;5.70;99.90
21001;DHT22;10658;50.920;12.238;2023-04-25T20:58:24;5.70;99.90
21001;DHT22;10658;50.920;12.238;2023-04-25T21:02:24;5.50;99.90
21001;DHT22;10658;50.920;12.238;2023-04-25T21:06:25;5.50;99.90
21001;DHT22;10658;50.920;12.238;2023-04-25T21:10:30;5.40;99.90
21001;DHT22;10658;50.920;12.238;2023-04-25T21:14:31;5.30;99.90
21001;DHT22;10658;50.920;12.238;2023-04-25T21:19:02;5.20;99.90
21001;DHT22;10658;50.920;12.238;2023-04-25T21:23:09;5.00;99.90
21001;DHT22;10658;50.920;12.238;2023-04-25T21:27:27;4.70;99.90
21001;DHT22;10658;50.920;12.238;2023-04-25T21:31:51;4.70;99.90
21001;DHT22;10658;50.920;12.238;2023-04-25T21:35:54;4.70;99.90
21001;DHT22;10658;50.920;12.238;2023-04-25T21:39:55;4.70;99.90
21001;DHT22;10658;50.920;12.238;2023-04-25T21:44:27;4.80;99.90
21001;DHT22;10658;50.920;12.238;2023-04-25T21:48:33;4.70;99.90
21001;DHT22;10658;50.920;12.238;2023-04-25T21:52:52;4.80;99.90
21001;DHT22;10658;50.920;12.238;2023-04-25T21:57:05;4.80;99.90
21001;DHT22;10658;50.920;12.238;2023-04-25T22:01:06;4.90;99.90
21001;DHT22;10658;50.920;12.238;2023-04-25T22:05:07;5.00;99.90
21001;DHT22;10658;50.920;12.238;2023-04-25T22:09:13;5.00;99.90
21001;DHT22;10658;50.920;12.238;2023-04-25T22:13:38;4.90;99.90
21001;DHT22;10658;50.920;12.238;2023-04-25T22:17:59;5.00;99.90
21001;DHT22;10658;50.920;12.238;2023-04-25T22:22:24;5.10;99.90
21001;DHT22;10658;50.920;12.238;2023-04-25T22:26:25;5.10;99.90
21001;DHT22;10658;50.920;12.238;2023-04-25T22:30:26;5.10;99.90
21001;DHT22;10658;50.920;12.238;2023-04-25T22:34:33;5.00;99.90
21001;DHT22;10658;50.920;12.238;2023-04-25T22:38:54;5.00;99.90
21001;DHT22;10658;50.920;12.238;2023-04-25T22:42:55;4.90;99.90
21001;DHT22;10658;50.920;12.238;2023-04-25T22:47:17;4.80;99.90
21001;DHT22;10658;50.920;12.238;2023-04-25T22:51:18;4.80;99.90
21001;DHT22;10658;50.920;12.238;2023-04-25T22:55:21;4.80;99.90
21001;DHT22;10658;50.920;12.238;2023-04-25T22:59:22;4.80;99.90
21001;DHT22;10658;50.920;12.238;2023-04-25T23:03:26;4.80;99.90
21001;DHT22;10658;50.920;12.238;2023-04-25T23:07:27;4.80;99.90
21001;DHT22;10658;50.920;12.238;2023-04-25T23:11:31;4.80;99.90
21001;DHT22;10658;50.920;12.238;2023-04-25T23:15:39;4.80;99.90
21001;DHT22;10658;50.920;12.238;2023-04-25T23:20:10;4.70;99.90
21001;DHT22;10658;50.920;12.238;2023-04-25T23:24:21;4.70;99.90
21001;DHT22;10658;50.920;12.238;2023-04-25T23:28:22;4.60;99.90
21001;DHT22;10658;50.920;12.238;2023-04-25T23:32:26;4.60;99.90
21001;DHT22;10658;50.920;12.238;2023-04-25T23:36:26;4.60;99.90
21001;DHT22;10658;50.920;12.238;2023-04-25T23:40:27;4.60;99.90
21001;DHT22;10658;50.920;12.238;2023-04-25T23:44:41;4.70;99.90
21001;DHT22;10658;50.920;12.238;2023-04-25T23:48:50;4.80;99.90
21001;DHT22;10658;50.920;12.238;2023-04-25T23:53:04;4.80;99.90
21001;DHT22;10658;50.920;12.238;2023-04-25T23:57:07;4.70;99.90
